createdAt,value
2016-07-15T00:00:23.020Z,0
2016-07-15T00:01:23.010Z,0
2016-07-15T00:02:23.007Z,0
2016-07-15T00:03:23.002Z,0
2016-07-15T00:04:23.038Z,0
2016-07-15T00:05:22.984Z,0
2016-07-15T00:06:22.983Z,0
2016-07-15T00:07:22.965Z,0
2016-07-15T00:08:22.976Z,0
2016-07-15T00:09:22.966Z,0
2016-07-15T00:10:22.944Z,0
2016-07-15T00:11:22.952Z,0
2016-07-15T00:12:22.945Z,0
2016-07-15T00:13:23.702Z,0
2016-07-15T00:14:22.926Z,0
2016-07-15T00:15:22.923Z,0
2016-07-15T00:16:22.901Z,0
2016-07-15T00:17:22.899Z,0
2016-07-15T00:18:22.899Z,0
2016-07-15T00:19:22.909Z,0
2016-07-15T00:20:22.879Z,0
2016-07-15T00:21:22.866Z,0
2016-07-15T00:22:22.871Z,0
2016-07-15T00:23:22.864Z,0
2016-07-15T00:24:22.847Z,0
2016-07-15T00:25:22.866Z,0
2016-07-15T00:26:22.854Z,0
2016-07-15T00:27:22.858Z,0
2016-07-15T00:28:22.846Z,0
2016-07-15T00:29:22.838Z,0
2016-07-15T00:30:22.817Z,0
2016-07-15T00:31:22.804Z,0
2016-07-15T00:32:22.795Z,0
2016-07-15T00:33:22.812Z,0
2016-07-15T00:34:22.819Z,0
2016-07-15T00:35:23.493Z,0
2016-07-15T00:36:22.786Z,0
2016-07-15T00:37:22.759Z,0
2016-07-15T00:38:22.758Z,0
2016-07-15T00:39:22.747Z,0
2016-07-15T00:40:22.755Z,0
2016-07-15T00:41:22.724Z,0
2016-07-15T00:42:22.749Z,0
2016-07-15T00:43:22.711Z,0
2016-07-15T00:44:22.780Z,0
2016-07-15T00:45:22.720Z,0
2016-07-15T00:46:23.413Z,0
2016-07-15T00:47:23.476Z,0
2016-07-15T00:48:22.674Z,0
2016-07-15T00:49:22.677Z,0
2016-07-15T00:50:22.673Z,0
2016-07-15T00:51:22.670Z,0
2016-07-15T00:52:22.666Z,0
2016-07-15T00:53:22.648Z,0
2016-07-15T00:54:22.654Z,0
2016-07-15T00:55:22.654Z,0
2016-07-15T00:56:22.656Z,0
2016-07-15T00:57:22.617Z,0
2016-07-15T00:58:22.617Z,0
2016-07-15T00:59:22.613Z,0
2016-07-15T01:00:22.598Z,0
2016-07-15T01:01:22.627Z,0
2016-07-15T01:02:22.603Z,0
2016-07-15T01:03:22.596Z,0
2016-07-15T01:04:22.576Z,0
2016-07-15T01:05:24.083Z,0
2016-07-15T01:06:22.568Z,0
2016-07-15T01:07:22.560Z,0
2016-07-15T01:08:22.548Z,0
2016-07-15T01:09:22.571Z,0
2016-07-15T01:10:22.535Z,0
2016-07-15T01:11:22.534Z,0
2016-07-15T01:12:22.509Z,0
2016-07-15T01:13:22.520Z,0
2016-07-15T01:14:22.487Z,0
2016-07-15T01:15:22.496Z,0
2016-07-15T01:16:22.493Z,0
2016-07-15T01:17:22.496Z,0
2016-07-15T01:18:22.495Z,0
2016-07-15T01:19:22.474Z,0
2016-07-15T01:20:22.457Z,0
2016-07-15T01:21:22.455Z,0
2016-07-15T01:22:22.456Z,0
2016-07-15T01:23:23.165Z,0
2016-07-15T01:24:22.430Z,0
2016-07-15T01:25:22.426Z,0
2016-07-15T01:26:22.407Z,0
2016-07-15T01:27:22.422Z,0
2016-07-15T01:28:22.399Z,0
2016-07-15T01:29:22.399Z,0
2016-07-15T01:30:22.412Z,0
2016-07-15T01:31:22.408Z,0
2016-07-15T01:32:22.370Z,0
2016-07-15T01:33:22.370Z,0
2016-07-15T01:34:22.353Z,0
2016-07-15T01:35:22.361Z,0
2016-07-15T01:36:22.351Z,0
2016-07-15T01:37:22.339Z,0
2016-07-15T01:38:22.356Z,0
2016-07-15T01:39:22.314Z,0
2016-07-15T01:40:22.312Z,0
2016-07-15T01:41:22.314Z,0
2016-07-15T01:42:22.291Z,0
2016-07-15T01:43:22.295Z,0
2016-07-15T01:44:22.344Z,0
2016-07-15T01:45:22.278Z,0
2016-07-15T01:46:22.260Z,0
2016-07-15T01:47:22.252Z,0
2016-07-15T01:48:22.262Z,0
2016-07-15T01:49:22.244Z,0
2016-07-15T01:50:22.249Z,0
2016-07-15T01:51:22.245Z,0
2016-07-15T01:52:22.230Z,0
2016-07-15T01:53:22.927Z,0
2016-07-15T01:54:23.204Z,0
2016-07-15T01:55:22.494Z,0
2016-07-15T01:56:22.220Z,0
2016-07-15T01:57:22.199Z,0
2016-07-15T01:58:22.192Z,0
2016-07-15T01:59:22.203Z,0
2016-07-15T02:00:22.809Z,0
2016-07-15T02:01:22.165Z,0
2016-07-15T02:02:22.157Z,0
2016-07-15T02:03:22.164Z,0
2016-07-15T02:04:22.157Z,0
2016-07-15T02:05:22.153Z,0
2016-07-15T02:06:22.154Z,0
2016-07-15T02:07:22.102Z,0
2016-07-15T02:08:22.383Z,0
2016-07-15T02:09:22.104Z,0
2016-07-15T02:10:22.094Z,0
2016-07-15T02:11:22.090Z,0
2016-07-15T02:12:22.809Z,0
2016-07-15T02:13:22.093Z,0
2016-07-15T02:14:22.077Z,0
2016-07-15T02:15:22.051Z,0
2016-07-15T02:16:22.062Z,0
2016-07-15T02:17:22.058Z,0
2016-07-15T02:18:22.052Z,0
2016-07-15T02:19:22.023Z,0
2016-07-15T02:20:22.054Z,0
2016-07-15T02:21:22.034Z,0
2016-07-15T02:22:22.006Z,0
2016-07-15T02:23:22.007Z,0
2016-07-15T02:24:22.012Z,0
2016-07-15T02:25:21.991Z,0
2016-07-15T02:26:21.999Z,0
2016-07-15T02:27:21.968Z,0
2016-07-15T02:28:21.996Z,0
2016-07-15T02:29:21.955Z,0
2016-07-15T02:30:21.945Z,0
2016-07-15T02:31:21.947Z,0
2016-07-15T02:32:21.932Z,0
2016-07-15T02:33:21.942Z,0
2016-07-15T02:34:21.936Z,0
2016-07-15T02:35:21.926Z,0
2016-07-15T02:36:21.908Z,0
2016-07-15T02:37:22.629Z,0
2016-07-15T02:38:21.913Z,0
2016-07-15T02:39:21.893Z,0
2016-07-15T02:40:21.887Z,0
2016-07-15T02:41:21.868Z,0
2016-07-15T02:42:21.862Z,0
2016-07-15T02:43:21.863Z,0
2016-07-15T02:44:21.853Z,0
2016-07-15T02:45:21.851Z,0
2016-07-15T02:46:21.847Z,0
2016-07-15T02:47:21.836Z,0
2016-07-15T02:48:21.844Z,0
2016-07-15T02:49:21.818Z,0
2016-07-15T02:50:21.811Z,0
2016-07-15T02:51:21.790Z,0
2016-07-15T02:52:21.808Z,0
2016-07-15T02:53:21.782Z,4
2016-07-15T02:54:21.795Z,4
2016-07-15T02:55:21.770Z,4
2016-07-15T02:56:21.771Z,0
2016-07-15T02:57:21.764Z,4
2016-07-15T02:58:21.770Z,4
2016-07-15T02:59:21.755Z,4
2016-07-15T03:00:21.756Z,4
2016-07-15T03:01:21.736Z,12
2016-07-15T03:02:21.739Z,12
2016-07-15T03:03:22.426Z,12
2016-07-15T03:04:21.736Z,16
2016-07-15T03:05:21.699Z,16
2016-07-15T03:06:21.736Z,16
2016-07-15T03:07:22.418Z,20
2016-07-15T03:08:21.725Z,16
2016-07-15T03:09:21.685Z,20
2016-07-15T03:10:21.691Z,24
2016-07-15T03:11:21.677Z,20
2016-07-15T03:12:21.680Z,24
2016-07-15T03:13:21.636Z,28
2016-07-15T03:14:21.678Z,32
2016-07-15T03:15:21.666Z,36
2016-07-15T03:16:21.659Z,36
2016-07-15T03:17:21.640Z,40
2016-07-15T03:18:21.656Z,40
2016-07-15T03:19:21.659Z,44
2016-07-15T03:20:22.314Z,56
2016-07-15T03:21:21.594Z,48
2016-07-15T03:22:21.591Z,60
2016-07-15T03:23:21.564Z,60
2016-07-15T03:24:21.561Z,68
2016-07-15T03:25:21.557Z,80
2016-07-15T03:26:21.557Z,100
2016-07-15T03:27:21.566Z,84
2016-07-15T03:28:21.552Z,64
2016-07-15T03:29:21.551Z,52
2016-07-15T03:30:21.740Z,36
2016-07-15T03:31:21.503Z,40
2016-07-15T03:32:21.501Z,48
2016-07-15T03:33:21.501Z,56
2016-07-15T03:34:21.505Z,56
2016-07-15T03:35:21.471Z,52
2016-07-15T03:36:21.500Z,56
2016-07-15T03:37:21.475Z,56
2016-07-15T03:38:21.467Z,80
2016-07-15T03:39:22.168Z,100
2016-07-15T03:40:22.183Z,100
2016-07-15T03:41:22.149Z,92
2016-07-15T03:42:21.444Z,92
2016-07-15T03:43:21.440Z,112
2016-07-15T03:44:22.161Z,112
2016-07-15T03:45:21.416Z,124
2016-07-15T03:46:21.419Z,108
2016-07-15T03:47:21.398Z,132
2016-07-15T03:48:21.412Z,120
2016-07-15T03:49:21.408Z,140
2016-07-15T03:50:22.093Z,236
2016-07-15T03:51:21.390Z,172
2016-07-15T03:52:21.407Z,160
2016-07-15T03:53:21.416Z,160
2016-07-15T03:54:21.428Z,192
2016-07-15T03:55:21.419Z,324
2016-07-15T03:56:21.443Z,364
2016-07-15T03:57:21.350Z,348
2016-07-15T03:58:21.347Z,336
2016-07-15T03:59:21.358Z,352
2016-07-15T04:00:22.063Z,404
2016-07-15T04:01:21.367Z,476
2016-07-15T04:02:21.372Z,468
2016-07-15T04:03:21.373Z,404
2016-07-15T04:04:21.323Z,460
2016-07-15T04:05:21.333Z,488
2016-07-15T04:06:21.341Z,520
2016-07-15T04:07:21.352Z,616
2016-07-15T04:08:21.346Z,700
2016-07-15T04:09:22.711Z,640
2016-07-15T04:10:21.323Z,720
2016-07-15T04:11:21.332Z,664
2016-07-15T04:12:21.288Z,724
2016-07-15T04:13:21.294Z,812
2016-07-15T04:14:21.306Z,636
2016-07-15T04:15:22.016Z,664
2016-07-15T04:16:21.315Z,632
2016-07-15T04:17:21.311Z,656
2016-07-15T04:18:22.026Z,864
2016-07-15T04:19:22.050Z,736
2016-07-15T04:20:21.341Z,808
2016-07-15T04:21:21.354Z,804
2016-07-15T04:22:21.250Z,828
2016-07-15T04:23:21.274Z,700
2016-07-15T04:24:21.275Z,936
2016-07-15T04:25:21.268Z,952
2016-07-15T04:26:21.300Z,960
2016-07-15T04:27:21.286Z,904
2016-07-15T04:28:21.824Z,940
2016-07-15T04:29:21.315Z,1228
2016-07-15T04:30:21.237Z,1084
2016-07-15T04:31:21.262Z,720
2016-07-15T04:32:21.272Z,608
2016-07-15T04:33:21.252Z,612
2016-07-15T04:34:21.235Z,544
2016-07-15T04:35:21.250Z,488
2016-07-15T04:36:21.259Z,580
2016-07-15T04:37:21.272Z,772
2016-07-15T04:38:21.187Z,944
2016-07-15T04:39:21.204Z,700
2016-07-15T04:40:21.206Z,844
2016-07-15T04:41:21.276Z,1012
2016-07-15T04:42:21.237Z,896
2016-07-15T04:43:21.228Z,716
2016-07-15T04:44:21.241Z,644
2016-07-15T04:45:21.275Z,872
2016-07-15T04:46:21.164Z,1240
2016-07-15T04:47:21.153Z,1488
2016-07-15T04:48:21.175Z,1296
2016-07-15T04:49:21.180Z,1184
2016-07-15T04:50:21.184Z,992
2016-07-15T04:51:21.681Z,1028
2016-07-15T04:52:21.211Z,1224
2016-07-15T04:53:21.210Z,1164
2016-07-15T04:54:21.223Z,1228
2016-07-15T04:55:21.224Z,1268
2016-07-15T04:56:21.631Z,1232
2016-07-15T04:57:21.201Z,1648
2016-07-15T04:58:21.071Z,1852
2016-07-15T04:59:21.147Z,1608
2016-07-15T05:00:21.151Z,1080
2016-07-15T05:01:21.212Z,1172
2016-07-15T05:02:21.178Z,1556
2016-07-15T05:03:21.049Z,1744
2016-07-15T05:04:21.011Z,1320
2016-07-15T05:05:21.022Z,1472
2016-07-15T05:06:21.005Z,1708
2016-07-15T05:07:21.012Z,2024
2016-07-15T05:08:21.023Z,2132
2016-07-15T05:09:21.031Z,2088
2016-07-15T05:10:21.035Z,1940
2016-07-15T05:11:21.050Z,1608
2016-07-15T05:12:21.004Z,1532
2016-07-15T05:13:21.717Z,1760
2016-07-15T05:14:20.998Z,2300
2016-07-15T05:15:21.003Z,1720
2016-07-15T05:16:20.999Z,1352
2016-07-15T05:17:21.720Z,1316
2016-07-15T05:18:20.992Z,1516
2016-07-15T05:19:20.983Z,1552
2016-07-15T05:20:20.838Z,1740
2016-07-15T05:21:21.486Z,1876
2016-07-15T05:22:21.006Z,1792
2016-07-15T05:23:20.975Z,1908
2016-07-15T05:24:20.979Z,1852
2016-07-15T05:25:20.818Z,1860
2016-07-15T05:26:20.836Z,2004
2016-07-15T05:27:20.823Z,2548
2016-07-15T05:28:20.827Z,2824
2016-07-15T05:29:20.809Z,3464
2016-07-15T05:30:20.808Z,3732
2016-07-15T05:31:20.812Z,4452
2016-07-15T05:32:20.685Z,3732
2016-07-15T05:33:20.659Z,3024
2016-07-15T05:34:20.669Z,3080
2016-07-15T05:35:20.675Z,2552
2016-07-15T05:36:20.648Z,2380
2016-07-15T05:37:20.652Z,2640
2016-07-15T05:38:20.660Z,2540
2016-07-15T05:39:20.628Z,2296
2016-07-15T05:40:20.617Z,2528
2016-07-15T05:41:20.625Z,2092
2016-07-15T05:42:20.609Z,2912
2016-07-15T05:43:20.607Z,3844
2016-07-15T05:44:20.698Z,3712
2016-07-15T05:45:20.589Z,3548
2016-07-15T05:46:20.597Z,4096
2016-07-15T05:47:20.584Z,4272
2016-07-15T05:48:20.583Z,4596
2016-07-15T05:49:20.565Z,5144
2016-07-15T05:50:20.579Z,4676
2016-07-15T05:51:20.542Z,4684
2016-07-15T05:52:20.549Z,4420
2016-07-15T05:53:20.547Z,3944
2016-07-15T05:54:20.522Z,4180
2016-07-15T05:55:21.224Z,3900
2016-07-15T05:56:20.522Z,3304
2016-07-15T05:57:20.503Z,3696
2016-07-15T05:58:20.512Z,4036
2016-07-15T05:59:20.504Z,3392
2016-07-15T06:00:20.498Z,3272
2016-07-15T06:01:20.496Z,3544
2016-07-15T06:02:20.505Z,3716
2016-07-15T06:03:20.474Z,3804
2016-07-15T06:04:21.267Z,4016
2016-07-15T06:05:20.476Z,3620
2016-07-15T06:06:20.462Z,3616
2016-07-15T06:07:20.461Z,4172
2016-07-15T06:08:20.451Z,4836
2016-07-15T06:09:21.143Z,5148
2016-07-15T06:10:20.421Z,4696
2016-07-15T06:11:20.522Z,4488
2016-07-15T06:12:20.433Z,3684
2016-07-15T06:13:20.414Z,4292
2016-07-15T06:14:20.419Z,4064
2016-07-15T06:15:20.409Z,3528
2016-07-15T06:16:20.402Z,3328
2016-07-15T06:17:20.401Z,3440
2016-07-15T06:18:20.374Z,3956
2016-07-15T06:19:20.387Z,4484
2016-07-15T06:20:20.371Z,4368
2016-07-15T06:21:20.376Z,4312
2016-07-15T06:22:20.361Z,4908
2016-07-15T06:23:20.352Z,4884
2016-07-15T06:24:20.355Z,4124
2016-07-15T06:25:20.332Z,4916
2016-07-15T06:26:20.326Z,5024
2016-07-15T06:27:20.319Z,5168
2016-07-15T06:28:20.316Z,5752
2016-07-15T06:29:20.314Z,6444
2016-07-15T06:30:20.323Z,7536
2016-07-15T06:31:20.304Z,7572
2016-07-15T06:32:20.310Z,6300
2016-07-15T06:33:20.281Z,6012
2016-07-15T06:34:20.276Z,5636
2016-07-15T06:35:20.277Z,6060
2016-07-15T06:36:20.261Z,9100
2016-07-15T06:37:20.260Z,10424
2016-07-15T06:38:20.261Z,9688
2016-07-15T06:39:20.252Z,9256
2016-07-15T06:40:20.239Z,9320
2016-07-15T06:41:20.244Z,9232
2016-07-15T06:42:20.264Z,8696
2016-07-15T06:43:20.226Z,8008
2016-07-15T06:44:20.218Z,7184
2016-07-15T06:45:20.215Z,6480
2016-07-15T06:46:20.216Z,5392
2016-07-15T06:47:20.211Z,4536
2016-07-15T06:48:20.201Z,4484
2016-07-15T06:49:20.179Z,4408
2016-07-15T06:50:20.190Z,4328
2016-07-15T06:51:20.171Z,4456
2016-07-15T06:52:20.180Z,4908
2016-07-15T06:53:20.161Z,5344
2016-07-15T06:54:20.179Z,5180
2016-07-15T06:55:20.177Z,4724
2016-07-15T06:56:20.154Z,4260
2016-07-15T06:57:20.151Z,4152
2016-07-15T06:58:20.152Z,4260
2016-07-15T06:59:20.133Z,4280
2016-07-15T07:00:20.143Z,4664
2016-07-15T07:01:20.125Z,4120
2016-07-15T07:02:20.132Z,3544
2016-07-15T07:03:20.115Z,3476
2016-07-15T07:04:20.112Z,3560
2016-07-15T07:05:20.085Z,3864
2016-07-15T07:06:20.092Z,4192
2016-07-15T07:07:20.093Z,4036
2016-07-15T07:08:20.080Z,3584
2016-07-15T07:09:20.069Z,3884
2016-07-15T07:10:20.066Z,3572
2016-07-15T07:11:20.303Z,2828
2016-07-15T07:12:20.928Z,2632
2016-07-15T07:13:20.059Z,2652
2016-07-15T07:14:20.049Z,2716
2016-07-15T07:15:20.032Z,2920
2016-07-15T07:16:20.060Z,3208
2016-07-15T07:17:20.040Z,3720
2016-07-15T07:18:20.034Z,3632
2016-07-15T07:19:20.020Z,3936
2016-07-15T07:20:20.944Z,4920
2016-07-15T07:21:19.997Z,4296
2016-07-15T07:22:19.999Z,4132
2016-07-15T07:23:19.999Z,5000
2016-07-15T07:24:20.008Z,4560
2016-07-15T07:25:19.984Z,5116
2016-07-15T07:26:19.968Z,5116
2016-07-15T07:27:20.725Z,4708
2016-07-15T07:28:19.980Z,4596
2016-07-15T07:29:19.961Z,4968
2016-07-15T07:30:19.972Z,4516
2016-07-15T07:31:19.937Z,4728
2016-07-15T07:32:19.938Z,5380
2016-07-15T07:33:19.943Z,5068
2016-07-15T07:34:19.941Z,4568
2016-07-15T07:35:19.921Z,5148
2016-07-15T07:36:19.915Z,5092
2016-07-15T07:37:19.907Z,5276
2016-07-15T07:38:19.909Z,5304
2016-07-15T07:39:19.909Z,5020
2016-07-15T07:40:19.898Z,4112
2016-07-15T07:41:19.893Z,4092
2016-07-15T07:42:19.883Z,4236
2016-07-15T07:43:19.896Z,3768
2016-07-15T07:44:19.891Z,3808
2016-07-15T07:45:19.888Z,4068
2016-07-15T07:46:19.877Z,4912
2016-07-15T07:47:19.858Z,4672
2016-07-15T07:48:19.868Z,3852
2016-07-15T07:49:19.863Z,3616
2016-07-15T07:50:19.860Z,3632
2016-07-15T07:51:19.834Z,3404
2016-07-15T07:52:19.841Z,3352
2016-07-15T07:53:19.833Z,3560
2016-07-15T07:54:19.830Z,3712
2016-07-15T07:55:19.805Z,4160
2016-07-15T07:56:20.025Z,3884
2016-07-15T07:57:19.808Z,4048
2016-07-15T07:58:19.788Z,5208
2016-07-15T07:59:19.792Z,4916
2016-07-15T08:00:19.773Z,4704
2016-07-15T08:01:20.481Z,4844
2016-07-15T08:02:19.777Z,5432
2016-07-15T08:03:19.768Z,5740
2016-07-15T08:04:19.773Z,5140
2016-07-15T08:05:19.763Z,5672
2016-07-15T08:06:19.739Z,5740
2016-07-15T08:07:19.746Z,5308
2016-07-15T08:08:19.731Z,4480
2016-07-15T08:09:19.730Z,5352
2016-07-15T08:10:19.716Z,5436
2016-07-15T08:11:19.709Z,5716
2016-07-15T08:12:19.707Z,5472
2016-07-15T08:13:19.706Z,4840
2016-07-15T08:14:19.693Z,4048
2016-07-15T08:15:19.699Z,4288
2016-07-15T08:16:19.682Z,5036
2016-07-15T08:17:20.391Z,5568
2016-07-15T08:18:19.671Z,5404
2016-07-15T08:19:19.673Z,6564
2016-07-15T08:20:19.661Z,6316
2016-07-15T08:21:19.656Z,6312
2016-07-15T08:22:19.651Z,6604
2016-07-15T08:23:19.669Z,5644
2016-07-15T08:24:20.348Z,5584
2016-07-15T08:25:19.631Z,6776
2016-07-15T08:26:19.628Z,8036
2016-07-15T08:27:19.621Z,8664
2016-07-15T08:28:19.629Z,10468
2016-07-15T08:29:19.603Z,11460
2016-07-15T08:30:19.597Z,12248
2016-07-15T08:31:19.595Z,12464
2016-07-15T08:32:19.586Z,11376
2016-07-15T08:33:19.592Z,9808
2016-07-15T08:34:19.575Z,10552
2016-07-15T08:35:20.293Z,9720
2016-07-15T08:36:19.569Z,10400
2016-07-15T08:37:19.562Z,9300
2016-07-15T08:38:19.553Z,8460
2016-07-15T08:39:19.561Z,10244
2016-07-15T08:40:19.540Z,9468
2016-07-15T08:41:19.540Z,7616
2016-07-15T08:42:19.550Z,7128
2016-07-15T08:43:19.537Z,10268
2016-07-15T08:44:19.535Z,11456
2016-07-15T08:45:19.519Z,10188
2016-07-15T08:46:19.516Z,10264
2016-07-15T08:47:19.520Z,8056
2016-07-15T08:48:19.517Z,5608
2016-07-15T08:49:19.500Z,5544
2016-07-15T08:50:19.498Z,5452
2016-07-15T08:51:19.509Z,4692
2016-07-15T08:52:19.501Z,4848
2016-07-15T08:53:19.495Z,4740
2016-07-15T08:54:19.487Z,4024
2016-07-15T08:55:19.470Z,3704
2016-07-15T08:56:19.468Z,3724
2016-07-15T08:57:19.471Z,3816
2016-07-15T08:58:19.467Z,3884
2016-07-15T08:59:19.478Z,3624
2016-07-15T09:00:19.453Z,4068
2016-07-15T09:01:19.438Z,5436
2016-07-15T09:02:19.440Z,5416
2016-07-15T09:03:19.451Z,5828
2016-07-15T09:04:19.440Z,5048
2016-07-15T09:05:19.425Z,3976
2016-07-15T09:06:19.423Z,4964
2016-07-15T09:07:19.414Z,8144
2016-07-15T09:08:19.411Z,9668
2016-07-15T09:09:19.411Z,10600
2016-07-15T09:10:19.403Z,11140
2016-07-15T09:11:19.407Z,11756
2016-07-15T09:12:19.389Z,10264
2016-07-15T09:13:19.393Z,9004
2016-07-15T09:14:19.393Z,8020
2016-07-15T09:15:19.375Z,6452
2016-07-15T09:16:19.371Z,6480
2016-07-15T09:17:19.365Z,8260
2016-07-15T09:18:19.375Z,8200
2016-07-15T09:19:19.358Z,7296
2016-07-15T09:20:19.343Z,6360
2016-07-15T09:21:19.346Z,7356
2016-07-15T09:22:19.345Z,9036
2016-07-15T09:23:19.329Z,8612
2016-07-15T09:24:19.326Z,6828
2016-07-15T09:25:19.343Z,6016
2016-07-15T09:26:19.326Z,6440
2016-07-15T09:27:19.310Z,7496
2016-07-15T09:28:19.304Z,8024
2016-07-15T09:29:19.329Z,8684
2016-07-15T09:30:19.299Z,10152
2016-07-15T09:31:19.300Z,12084
2016-07-15T09:32:19.284Z,13616
2016-07-15T09:33:19.285Z,15048
2016-07-15T09:34:19.282Z,15408
2016-07-15T09:35:19.282Z,14144
2016-07-15T09:36:19.271Z,10420
2016-07-15T09:37:19.278Z,7264
2016-07-15T09:38:19.257Z,6688
2016-07-15T09:39:19.278Z,6924
2016-07-15T09:40:19.250Z,8260
2016-07-15T09:41:19.250Z,10524
2016-07-15T09:42:19.279Z,10632
2016-07-15T09:43:19.269Z,9928
2016-07-15T09:44:19.232Z,9392
2016-07-15T09:45:19.238Z,9292
2016-07-15T09:46:19.235Z,11392
2016-07-15T09:47:19.236Z,14460
2016-07-15T09:48:19.225Z,14168
2016-07-15T09:49:19.213Z,12596
2016-07-15T09:50:19.210Z,13784
2016-07-15T09:51:19.221Z,15260
2016-07-15T09:52:19.204Z,13920
2016-07-15T09:53:19.203Z,13184
2016-07-15T09:54:19.189Z,12972
2016-07-15T09:55:19.197Z,11948
2016-07-15T09:56:19.203Z,11696
2016-07-15T09:57:19.893Z,13636
2016-07-15T09:58:19.186Z,16388
2016-07-15T09:59:19.179Z,16832
2016-07-15T10:00:19.177Z,18816
2016-07-15T10:01:19.168Z,17728
2016-07-15T10:02:20.274Z,13624
2016-07-15T10:03:19.172Z,11772
2016-07-15T10:04:19.155Z,11996
2016-07-15T10:05:19.194Z,13552
2016-07-15T10:06:19.146Z,14080
2016-07-15T10:07:19.147Z,12464
2016-07-15T10:08:19.142Z,10172
2016-07-15T10:09:19.154Z,8904
2016-07-15T10:10:19.129Z,8552
2016-07-15T10:11:19.156Z,8484
2016-07-15T10:12:19.119Z,8800
2016-07-15T10:13:19.128Z,9620
2016-07-15T10:14:19.120Z,10472
2016-07-15T10:15:19.124Z,10408
2016-07-15T10:16:19.105Z,9812
2016-07-15T10:17:19.148Z,9268
2016-07-15T10:18:19.114Z,8556
2016-07-15T10:19:19.113Z,7468
2016-07-15T10:20:19.107Z,5964
2016-07-15T10:21:19.098Z,4532
2016-07-15T10:22:19.098Z,3224
2016-07-15T10:23:19.797Z,2552
2016-07-15T10:24:19.096Z,2532
2016-07-15T10:25:19.091Z,2788
2016-07-15T10:26:19.074Z,2728
2016-07-15T10:27:19.089Z,2972
2016-07-15T10:28:19.119Z,3700
2016-07-15T10:29:19.052Z,4852
2016-07-15T10:30:19.098Z,5548
2016-07-15T10:31:19.064Z,6184
2016-07-15T10:32:19.064Z,6844
2016-07-15T10:33:20.159Z,7720
2016-07-15T10:34:19.097Z,8432
2016-07-15T10:35:19.041Z,8996
2016-07-15T10:36:19.045Z,9636
2016-07-15T10:37:19.052Z,10944
2016-07-15T10:38:19.122Z,10692
2016-07-15T10:39:19.055Z,10052
2016-07-15T10:40:19.036Z,10928
2016-07-15T10:41:20.496Z,13592
2016-07-15T10:42:19.033Z,14940
2016-07-15T10:43:19.021Z,11320
2016-07-15T10:53:19.136Z,7768
2016-07-15T10:54:19.001Z,9068
2016-07-15T10:55:18.991Z,10124
2016-07-15T10:56:19.243Z,11268
2016-07-15T10:57:20.092Z,12420
2016-07-15T10:58:20.249Z,13144
2016-07-15T10:59:20.435Z,14012
2016-07-15T11:00:20.072Z,13984
2016-07-15T11:01:20.520Z,12784
2016-07-15T11:02:20.919Z,12620
2016-07-15T11:03:21.317Z,13152
2016-07-15T11:04:22.821Z,13096
2016-07-15T11:05:21.096Z,13448
2016-07-15T11:06:20.017Z,12852
2016-07-15T11:07:20.152Z,12364
2016-07-15T11:08:20.217Z,13716
2016-07-15T11:09:20.001Z,14392
2016-07-15T11:10:20.289Z,13052
2016-07-15T11:11:21.664Z,10776
2016-07-15T11:12:21.363Z,8968
2016-07-15T11:13:20.184Z,7392
2016-07-15T11:14:21.271Z,6836
2016-07-15T11:15:21.298Z,6820
2016-07-15T11:16:21.076Z,7044
2016-07-15T11:17:34.871Z,6852
2016-07-15T11:18:20.398Z,6988
2016-07-15T11:19:21.779Z,7800
2016-07-15T11:20:21.272Z,9084
2016-07-15T11:21:20.437Z,10244
2016-07-15T11:22:21.530Z,10844
2016-07-15T11:23:20.936Z,11196
2016-07-15T11:24:20.788Z,13068
2016-07-15T11:25:21.908Z,15408
2016-07-15T11:26:34.337Z,16832
2016-07-15T11:27:20.375Z,16224
2016-07-15T11:28:20.007Z,14512
2016-07-15T11:29:20.303Z,13028
2016-07-15T11:30:19.968Z,12184
2016-07-15T11:31:20.602Z,11768
2016-07-15T11:32:20.028Z,10172
2016-07-15T11:33:20.824Z,8484
2016-07-15T11:34:22.170Z,6592
2016-07-15T11:35:21.339Z,5592
2016-07-15T11:36:21.133Z,6740
2016-07-15T11:37:21.066Z,7352
2016-07-15T11:38:20.882Z,7284
2016-07-15T11:39:21.814Z,6912
2016-07-15T11:40:20.125Z,6532
2016-07-15T11:41:20.449Z,7416
2016-07-15T11:42:20.072Z,8752
2016-07-15T11:43:20.869Z,9032
2016-07-15T11:44:20.829Z,9684
2016-07-15T11:45:20.841Z,10292
2016-07-15T11:46:20.997Z,10844
2016-07-15T11:47:21.358Z,11000
2016-07-15T11:48:21.351Z,11396
2016-07-15T11:49:21.232Z,12452
2016-07-15T11:50:21.133Z,14260
2016-07-15T11:51:20.160Z,15580
2016-07-15T11:52:21.024Z,16736
2016-07-15T11:53:20.935Z,17824
2016-07-15T11:54:21.890Z,18752
2016-07-15T11:55:19.990Z,19136
2016-07-15T11:56:20.826Z,18688
2016-07-15T11:57:20.295Z,17952
2016-07-15T11:58:21.400Z,17248
2016-07-15T11:59:21.111Z,18112
2016-07-15T12:00:20.029Z,18752
2016-07-15T12:01:20.736Z,17120
2016-07-15T12:02:20.296Z,14540
2016-07-15T12:03:20.909Z,13664
2016-07-15T12:04:21.021Z,13532
2016-07-15T12:05:20.721Z,11960
2016-07-15T12:06:21.753Z,9368
2016-07-15T12:07:21.314Z,6592
2016-07-15T12:08:20.540Z,4716
2016-07-15T12:09:21.552Z,4116
2016-07-15T12:10:20.853Z,4132
2016-07-15T12:11:21.039Z,3996
2016-07-15T12:12:21.413Z,3500
2016-07-15T12:13:20.240Z,2924
2016-07-15T12:14:20.011Z,2472
2016-07-15T12:15:20.691Z,2164
2016-07-15T12:16:21.898Z,2060
2016-07-15T12:17:20.529Z,2364
2016-07-15T12:18:22.738Z,3116
2016-07-15T12:19:21.543Z,3796
2016-07-15T12:20:20.061Z,4140
2016-07-15T12:21:20.993Z,4648
2016-07-15T12:22:21.187Z,5096
2016-07-15T12:23:21.233Z,5348
2016-07-15T12:24:20.959Z,5692
2016-07-15T12:25:19.923Z,6272
2016-07-15T12:26:34.388Z,7084
2016-07-15T12:27:21.176Z,7536
2016-07-15T12:28:21.287Z,7976
2016-07-15T12:29:20.627Z,8404
2016-07-15T12:30:20.688Z,8792
2016-07-15T12:31:20.610Z,9412
2016-07-15T12:32:20.670Z,10328
2016-07-15T12:33:20.915Z,11244
2016-07-15T12:34:23.028Z,12668
2016-07-15T12:35:21.937Z,14120
2016-07-15T12:36:21.706Z,15344
2016-07-15T12:37:21.802Z,16112
2016-07-15T12:38:34.654Z,16444
2016-07-15T12:39:20.177Z,16304
2016-07-15T12:40:36.591Z,15488
2016-07-15T12:41:20.084Z,15004
2016-07-15T12:42:19.794Z,14156
2016-07-15T12:43:20.215Z,12908
2016-07-15T12:44:20.081Z,11728
2016-07-15T12:45:21.385Z,10784
2016-07-15T12:46:19.685Z,9656
2016-07-15T12:47:18.729Z,8180
2016-07-15T12:48:18.651Z,6700
2016-07-15T12:49:18.610Z,6596
2016-07-15T12:50:18.623Z,8848
2016-07-15T12:51:18.607Z,11700
2016-07-15T12:52:18.611Z,14552
2016-07-15T12:53:18.603Z,15876
2016-07-15T12:54:18.612Z,16236
2016-07-15T12:55:18.621Z,15292
2016-07-15T12:56:18.598Z,13504
2016-07-15T12:57:18.597Z,11080
2016-07-15T12:58:18.579Z,8556
2016-07-15T12:59:18.614Z,6840
2016-07-15T13:00:18.591Z,6096
2016-07-15T13:01:18.589Z,5704
2016-07-15T13:02:18.598Z,5428
2016-07-15T13:03:18.568Z,5064
2016-07-15T13:04:18.600Z,4792
2016-07-15T13:05:18.607Z,4664
2016-07-15T13:06:18.587Z,4880
2016-07-15T13:07:18.565Z,5312
2016-07-15T13:08:18.541Z,5888
2016-07-15T13:09:18.539Z,6252
2016-07-15T13:10:18.564Z,6328
2016-07-15T13:11:18.551Z,6480
2016-07-15T13:12:18.542Z,6576
2016-07-15T13:13:18.549Z,6968
2016-07-15T13:14:18.519Z,7488
2016-07-15T13:15:18.522Z,7856
2016-07-15T13:16:18.551Z,8004
2016-07-15T13:17:18.536Z,7848
2016-07-15T13:18:18.551Z,7340
2016-07-15T13:19:18.529Z,6964
2016-07-15T13:20:18.568Z,6808
2016-07-15T13:21:18.527Z,6852
2016-07-15T13:22:18.516Z,7064
2016-07-15T13:23:18.506Z,7460
2016-07-15T13:24:18.529Z,7956
2016-07-15T13:25:18.490Z,8528
2016-07-15T13:26:18.534Z,9036
2016-07-15T13:27:18.508Z,9444
2016-07-15T13:28:18.550Z,9792
2016-07-15T13:29:18.570Z,10028
2016-07-15T13:30:18.488Z,10248
2016-07-15T13:31:18.472Z,10408
2016-07-15T13:32:18.504Z,10548
2016-07-15T13:33:18.492Z,10608
2016-07-15T13:34:18.480Z,10812
2016-07-15T13:35:18.494Z,11212
2016-07-15T13:36:18.469Z,11708
2016-07-15T13:37:18.596Z,12264
2016-07-15T13:38:18.496Z,12680
2016-07-15T13:39:18.510Z,12988
2016-07-15T13:40:18.493Z,13344
2016-07-15T13:41:18.448Z,13800
2016-07-15T13:42:18.454Z,14192
2016-07-15T13:43:18.466Z,14524
2016-07-15T13:44:18.446Z,14828
2016-07-15T13:45:18.589Z,14860